FTTY

Faya Largeau Airport

Chad
METAR FTTY 151500Z 22004KT 8000 NSC 40/24 Q1010
Observed Flight Rules
Aug-15 @ 15:00 UTC (7 hours ago) Marginal Visual Flight Rules
Wind Visibility Clouds
220° at 4 knots 7,998 meters
  • Clear skies
Temperatures Readings
Current 40°C / 104°F
Dewpoint 24°C / 75°F
Humidity 40%
Altimeter 29.82" Hg
Pressure 1010 hPa
Elevation 234
METAR FTTY 151500Z 22004KT 8000 NSC 40/24 Q1010
Observed Flight Rules
Aug-15 @ 15:00 UTC
(7 hours ago)
MVFR
Wind Visibility
220° at 4 knots 7,998 meters
Clouds
  • Clear skies
Temperature Dewpoint
40°C / 104°F 24°C / 75°F
Humidity Altimeter Pressure
40% 29.82" Hg 1010 hPa